Time;durP1;ratioP1;P1;durP2;ratioP2;P2;SDS_P1;SDS_P2;PMS_P1;PMS_P2;Temp;Humidity;BMP_temperature;BMP_pressure;BME280_temperature;BME280_humidity;BME280_pressure;Samples;Min_cycle;Max_cycle;Signal;HPM_P1;HPM_P2
2023/10/09 00:01:13;;;;;;;22.55;12.48;;;17.70;99.90;;;;;;5038172;28;20010;-76
2023/10/09 00:03:43;;;;;;;18.88;12.57;;;17.70;99.90;;;;;;5037108;28;20036;-76
2023/10/09 00:06:16;;;;;;;19.80;11.68;;;17.70;99.90;;;;;;5022898;28;20013;-76
2023/10/09 00:08:48;;;;;;;21.27;12.02;;;17.70;99.90;;;;;;5037317;28;20112;-76
2023/10/09 00:13:49;;;;;;;18.88;13.15;;;17.60;99.90;;;;;;5037356;28;20066;-76
2023/10/09 00:17:17;;;;;;;23.55;13.63;;;17.60;99.90;;;;;;5035022;28;20021;-75
2023/10/09 00:19:19;;;;;;;22.08;13.55;;;17.60;99.90;;;;;;5033004;28;20100;-76
2023/10/09 00:21:46;;;;;;;21.17;12.65;;;17.50;99.90;;;;;;5015679;28;20025;-76
2023/10/09 00:24:13;;;;;;;21.48;12.90;;;17.60;99.90;;;;;;5015102;28;20380;-77
2023/10/09 00:26:45;;;;;;;20.40;12.23;;;17.60;99.90;;;;;;5020704;28;20416;-76
2023/10/09 00:29:21;;;;;;;21.05;13.25;;;17.60;99.90;;;;;;5035922;28;20040;-76
2023/10/09 00:31:51;;;;;;;18.35;12.45;;;17.60;99.90;;;;;;5036013;28;20532;-76
2023/10/09 00:34:19;;;;;;;20.73;13.20;;;17.50;99.90;;;;;;5037328;28;20025;-76
2023/10/09 00:36:52;;;;;;;22.60;12.73;;;17.60;99.90;;;;;;5038134;28;20021;-76
2023/10/09 00:42:00;;;;;;;18.00;12.23;;;17.60;99.90;;;;;;5037474;28;20048;-76
2023/10/09 00:44:37;;;;;;;21.65;12.63;;;17.60;99.90;;;;;;5037362;28;20017;-76
2023/10/09 00:47:26;;;;;;;22.25;13.25;;;17.60;99.90;;;;;;5037478;28;20044;-75
2023/10/09 00:49:59;;;;;;;20.30;12.48;;;17.60;99.90;;;;;;5038051;28;20105;-74
2023/10/09 00:53:09;;;;;;;20.92;12.45;;;17.60;99.90;;;;;;5041023;28;20033;-75
2023/10/09 00:55:38;;;;;;;20.58;12.75;;;17.60;99.90;;;;;;5037359;28;20064;-76
2023/10/09 00:58:12;;;;;;;23.63;13.03;;;17.60;99.90;;;;;;5039578;28;20485;-75
2023/10/09 01:06:14;;;;;;;21.67;13.45;;;17.60;99.90;;;;;;5041964;28;20063;-76
2023/10/09 01:11:09;;;;;;;20.23;12.45;;;17.50;99.90;;;;;;5043340;28;20025;-75
2023/10/09 01:16:22;;;;;;;17.25;11.80;;;17.50;99.90;;;;;;5042680;28;20033;-75
2023/10/09 01:18:53;;;;;;;20.40;11.70;;;17.50;99.90;;;;;;5043735;28;20052;-76
2023/10/09 01:21:27;;;;;;;20.27;11.30;;;17.50;99.90;;;;;;5042998;28;20101;-75
2023/10/09 01:24:04;;;;;;;17.58;11.25;;;17.50;99.90;;;;;;5041600;28;20033;-75
2023/10/09 01:26:39;;;;;;;17.92;10.85;;;17.50;99.90;;;;;;5020372;28;20102;-76
2023/10/09 01:29:10;;;;;;;18.40;11.45;;;17.60;99.90;;;;;;5042005;28;20120;-76
2023/10/09 01:31:44;;;;;;;16.42;11.35;;;17.60;99.90;;;;;;5037867;28;20072;-75
2023/10/09 01:34:12;;;;;;;23.85;11.43;;;17.70;99.90;;;;;;5038626;28;20036;-75
2023/10/09 01:36:41;;;;;;;16.92;10.88;;;17.60;99.90;;;;;;5036575;28;20446;-75
2023/10/09 01:39:21;;;;;;;18.17;11.52;;;17.70;99.90;;;;;;5039367;28;20013;-76
2023/10/09 01:41:57;;;;;;;15.55;10.73;;;17.70;99.90;;;;;;5032688;28;20025;-75
2023/10/09 01:44:34;;;;;;;14.00;9.20;;;17.70;99.90;;;;;;5042110;28;20539;-76
2023/10/09 01:47:14;;;;;;;18.73;10.38;;;17.80;99.90;;;;;;5023670;28;20423;-76
2023/10/09 01:49:43;;;;;;;17.77;10.60;;;17.70;99.90;;;;;;5037001;28;20075;-75
2023/10/09 01:52:10;;;;;;;19.38;10.52;;;17.80;99.90;;;;;;5022363;28;20013;-76
2023/10/09 01:54:37;;;;;;;17.80;11.45;;;17.80;99.90;;;;;;5040334;28;20056;-75
2023/10/09 01:57:13;;;;;;;15.65;10.05;;;17.80;99.90;;;;;;5038594;28;20096;-76
2023/10/09 01:59:43;;;;;;;18.90;10.27;;;17.70;99.90;;;;;;5024873;28;20076;-75
2023/10/09 02:02:34;;;;;;;13.93;9.48;;;17.80;99.90;;;;;;5042244;28;20074;-75
2023/10/09 02:07:40;;;;;;;17.88;10.18;;;17.80;99.90;;;;;;5041110;28;20049;-75
2023/10/09 02:10:21;;;;;;;16.25;10.05;;;17.70;99.90;;;;;;5040878;28;20473;-76
2023/10/09 02:12:57;;;;;;;16.55;10.40;;;17.70;99.90;;;;;;5041610;28;20021;-76
2023/10/09 02:20:45;;;;;;;18.55;10.45;;;17.70;99.90;;;;;;5038539;28;20063;-75
2023/10/09 02:23:20;;;;;;;15.77;9.43;;;17.70;99.90;;;;;;5024680;28;20021;-75
2023/10/09 02:25:47;;;;;;;18.17;10.70;;;17.70;99.90;;;;;;5037786;28;20024;-75
2023/10/09 02:28:18;;;;;;;15.85;10.25;;;17.70;99.90;;;;;;5041257;28;20037;-75
2023/10/09 02:30:48;;;;;;;18.08;11.25;;;17.70;99.90;;;;;;5037848;28;20054;-75
2023/10/09 02:33:27;;;;;;;18.95;10.52;;;17.80;99.90;;;;;;5043896;28;20100;-75
2023/10/09 02:35:54;;;;;;;17.65;10.75;;;17.80;99.90;;;;;;5039640;28;20021;-75
2023/10/09 02:38:23;;;;;;;14.27;9.63;;;17.70;99.90;;;;;;5037759;28;20112;-75
2023/10/09 02:41:34;;;;;;;16.25;10.73;;;17.70;99.90;;;;;;5040049;28;20048;-75
2023/10/09 02:43:44;;;;;;;18.25;11.05;;;17.80;99.90;;;;;;5037428;28;20837;-75
2023/10/09 02:46:17;;;;;;;17.88;10.57;;;17.80;99.90;;;;;;5043351;28;20067;-81
2023/10/09 02:48:52;;;;;;;18.15;11.52;;;17.80;99.90;;;;;;5044801;28;20065;-76
2023/10/09 02:53:56;;;;;;;17.02;10.52;;;17.70;99.90;;;;;;5046725;28;20037;-76
2023/10/09 02:56:24;;;;;;;18.50;10.85;;;17.60;99.90;;;;;;5041392;28;20040;-76
2023/10/09 02:58:53;;;;;;;17.27;11.30;;;17.50;99.90;;;;;;5047398;28;20033;-76
2023/10/09 03:01:19;;;;;;;17.27;11.00;;;17.70;99.90;;;;;;5044422;28;20017;-76
2023/10/09 03:03:46;;;;;;;18.20;11.20;;;17.60;99.90;;;;;;5044905;28;20025;-76
2023/10/09 03:06:43;;;;;;;16.08;10.48;;;17.70;99.90;;;;;;5046680;28;20158;-76
2023/10/09 03:09:16;;;;;;;18.27;10.65;;;17.70;99.90;;;;;;5045734;28;20359;-76
2023/10/09 03:11:53;;;;;;;18.55;10.40;;;17.70;99.90;;;;;;5025923;28;20021;-76
2023/10/09 03:14:20;;;;;;;17.20;10.98;;;17.70;99.90;;;;;;5046638;28;20061;-76
2023/10/09 03:16:48;;;;;;;15.20;10.82;;;17.70;99.90;;;;;;5043385;28;20045;-76
2023/10/09 03:19:13;;;;;;;17.10;10.70;;;17.70;99.90;;;;;;5038082;28;20017;-76
2023/10/09 03:21:40;;;;;;;15.88;9.95;;;17.70;99.90;;;;;;5041299;28;20028;-76
2023/10/09 03:24:07;;;;;;;15.07;10.18;;;17.70;99.90;;;;;;5040761;28;20021;-76
2023/10/09 03:26:34;;;;;;;17.23;10.35;;;17.70;99.90;;;;;;5037227;28;20029;-76
2023/10/09 03:29:01;;;;;;;19.40;11.55;;;17.70;99.90;;;;;;5041773;28;20044;-76
2023/10/09 03:31:31;;;;;;;22.20;11.30;;;17.70;99.90;;;;;;5043526;28;20486;-76
2023/10/09 03:33:57;;;;;;;16.98;11.07;;;17.70;99.90;;;;;;5042327;28;20017;-76
2023/10/09 03:36:26;;;;;;;17.98;10.65;;;17.70;99.90;;;;;;5022633;28;20086;-75
2023/10/09 03:38:55;;;;;;;16.45;11.25;;;17.80;99.90;;;;;;5041331;28;20036;-76
2023/10/09 03:41:21;;;;;;;18.55;11.43;;;17.80;99.90;;;;;;5040915;28;20402;-76
2023/10/09 03:43:47;;;;;;;18.58;11.00;;;17.70;99.90;;;;;;5040936;28;20033;-76
2023/10/09 03:46:26;;;;;;;15.75;10.85;;;17.70;99.90;;;;;;5044087;28;20061;-76
2023/10/09 03:48:52;;;;;;;19.08;10.30;;;17.70;99.90;;;;;;5039152;28;20033;-76
2023/10/09 03:51:21;;;;;;;18.75;11.48;;;17.60;99.90;;;;;;5047951;28;20048;-75
2023/10/09 03:53:52;;;;;;;15.00;10.88;;;17.60;99.90;;;;;;5038777;28;20035;-76
2023/10/09 03:56:21;;;;;;;18.63;11.05;;;17.60;99.90;;;;;;5041549;28;20478;-76
2023/10/09 03:58:50;;;;;;;19.38;11.25;;;17.50;99.90;;;;;;5020788;28;20029;-76
2023/10/09 04:01:28;;;;;;;18.15;11.23;;;17.60;99.90;;;;;;5045723;28;20106;-76
2023/10/09 04:03:55;;;;;;;23.25;12.05;;;17.60;99.90;;;;;;5041300;28;20029;-76
2023/10/09 04:06:23;;;;;;;18.38;11.40;;;17.50;99.90;;;;;;5040970;28;20060;-75
2023/10/09 04:08:51;;;;;;;17.30;11.30;;;17.60;99.90;;;;;;5039695;28;20029;-76
2023/10/09 04:11:17;;;;;;;22.70;12.50;;;17.60;99.90;;;;;;5041103;28;20417;-76
2023/10/09 04:13:46;;;;;;;19.13;12.35;;;17.50;99.90;;;;;;5041174;28;20501;-76
2023/10/09 04:16:51;;;;;;;21.63;12.45;;;17.50;99.90;;;;;;5037812;28;20481;-76
2023/10/09 04:19:11;;;;;;;22.73;12.55;;;17.50;99.90;;;;;;5038365;28;20112;-76
2023/10/09 04:21:37;;;;;;;23.52;12.60;;;17.60;99.90;;;;;;5029193;28;20686;-76
2023/10/09 04:26:46;;;;;;;20.58;12.85;;;17.50;99.90;;;;;;5041571;28;20056;-76
2023/10/09 04:29:26;;;;;;;22.05;13.50;;;17.50;99.90;;;;;;5041338;28;20136;-76
2023/10/09 04:31:56;;;;;;;21.75;13.35;;;17.50;99.90;;;;;;5040466;28;20076;-76
2023/10/09 04:34:34;;;;;;;22.75;13.60;;;17.50;99.90;;;;;;5041646;28;20034;-75
2023/10/09 04:37:00;;;;;;;17.65;13.52;;;17.50;99.90;;;;;;5048838;28;20071;-76
2023/10/09 04:45:18;;;;;;;21.40;12.77;;;17.40;99.90;;;;;;5050131;28;20390;-76
2023/10/09 04:47:36;;;;;;;23.73;15.55;;;17.40;99.90;;;;;;5044792;28;20079;-76
2023/10/09 04:50:36;;;;;;;25.08;14.85;;;17.40;99.90;;;;;;5051346;28;20095;-76
2023/10/09 04:55:44;;;;;;;23.00;13.85;;;17.40;99.90;;;;;;5047868;28;20037;-76
2023/10/09 04:58:13;;;;;;;22.05;14.77;;;17.40;99.90;;;;;;5030738;28;20033;-76
2023/10/09 05:03:12;;;;;;;23.23;14.35;;;17.50;99.90;;;;;;5041762;28;20032;-75
2023/10/09 05:16:18;;;;;;;18.25;12.85;;;17.40;99.90;;;;;;5043190;28;20478;-76
2023/10/09 05:21:44;;;;;;;20.48;13.27;;;17.30;99.90;;;;;;5041832;28;20040;-75
2023/10/09 05:37:26;;;;;;;20.23;13.70;;;17.40;99.90;;;;;;5042698;28;20647;-75
2023/10/09 05:50:34;;;;;;;23.55;13.98;;;17.40;99.90;;;;;;5040362;28;20076;-75
2023/10/09 06:01:05;;;;;;;22.85;14.00;;;17.40;99.90;;;;;;5046352;28;20044;-74
2023/10/09 06:03:53;;;;;;;21.05;13.93;;;17.50;99.90;;;;;;5044562;28;20076;-75
2023/10/09 06:11:55;;;;;;;20.63;14.82;;;17.60;99.90;;;;;;5049531;28;20025;-75
2023/10/09 06:14:25;;;;;;;19.80;14.13;;;17.60;99.90;;;;;;5044244;28;20052;-75
2023/10/09 06:19:27;;;;;;;23.02;15.63;;;17.60;99.90;;;;;;5041871;28;20033;-75
2023/10/09 06:24:38;;;;;;;21.75;14.35;;;17.60;99.90;;;;;;5046387;28;20219;-75
2023/10/09 06:29:36;;;;;;;20.30;14.07;;;17.70;99.90;;;;;;5023335;28;20098;-75
2023/10/09 06:34:56;;;;;;;27.33;15.88;;;17.70;99.90;;;;;;5041088;28;20040;-75
2023/10/09 06:45:08;;;;;;;24.63;16.77;;;17.70;99.90;;;;;;5045626;28;20079;-75
2023/10/09 06:47:41;;;;;;;29.60;15.85;;;17.60;99.90;;;;;;5041901;28;20049;-75
2023/10/09 06:50:55;;;;;;;24.70;16.05;;;17.60;99.90;;;;;;5037282;28;20037;-75
2023/10/09 06:55:51;;;;;;;29.85;17.08;;;17.60;99.90;;;;;;5030893;28;20045;-75
2023/10/09 06:58:27;;;;;;;30.92;16.00;;;17.50;99.90;;;;;;5042874;28;20488;-75
2023/10/09 07:03:51;;;;;;;27.42;15.98;;;17.70;99.90;;;;;;5040054;28;20125;-75
2023/10/09 07:06:24;;;;;;;27.80;17.40;;;17.70;99.90;;;;;;5043776;28;20096;-75
2023/10/09 07:15:01;;;;;;;25.80;17.35;;;17.70;99.90;;;;;;5040694;28;20056;-75
2023/10/09 07:22:39;;;;;;;28.00;17.50;;;17.70;99.90;;;;;;5042295;28;20037;-75
2023/10/09 07:25:14;;;;;;;30.05;15.90;;;17.70;99.90;;;;;;5038670;28;20030;-76
2023/10/09 07:27:43;;;;;;;26.02;15.40;;;17.80;99.90;;;;;;5039518;28;20021;-75
2023/10/09 07:33:16;;;;;;;28.10;18.23;;;17.80;99.90;;;;;;5041687;28;20060;-75
2023/10/09 07:38:09;;;;;;;29.77;19.55;;;17.80;99.90;;;;;;5040016;28;20047;-75
2023/10/09 07:43:28;;;;;;;28.13;17.98;;;17.80;99.90;;;;;;5042229;28;20442;-75
2023/10/09 07:48:27;;;;;;;32.17;18.60;;;18.00;99.90;;;;;;5041323;28;20107;-76
2023/10/09 07:50:59;;;;;;;29.63;19.08;;;17.90;99.90;;;;;;5048404;28;20564;-76
2023/10/09 07:53:28;;;;;;;30.40;18.40;;;17.90;99.90;;;;;;5043327;28;20025;-75
2023/10/09 07:56:06;;;;;;;30.02;18.05;;;17.90;99.90;;;;;;5038210;28;20039;-75
2023/10/09 07:58:33;;;;;;;27.45;18.38;;;17.90;99.90;;;;;;5037010;28;20028;-75
2023/10/09 08:01:15;;;;;;;31.42;18.25;;;17.90;99.90;;;;;;5037052;28;20454;-75
2023/10/09 08:03:46;;;;;;;27.98;18.33;;;17.90;99.90;;;;;;5045182;28;20048;-75
2023/10/09 08:17:15;;;;;;;28.88;16.90;;;18.30;99.90;;;;;;5040062;28;20167;-75
2023/10/09 08:19:54;;;;;;;24.70;16.98;;;18.30;99.90;;;;;;5031532;28;20032;-75
2023/10/09 08:22:42;;;;;;;26.65;17.30;;;18.40;99.90;;;;;;5041407;28;20401;-75
2023/10/09 08:25:26;;;;;;;26.85;16.88;;;18.40;99.90;;;;;;5045170;28;20433;-75
2023/10/09 08:27:54;;;;;;;30.55;18.48;;;18.50;99.90;;;;;;5041275;28;20493;-75
2023/10/09 08:35:47;;;;;;;25.83;17.60;;;18.60;99.90;;;;;;5012334;28;20029;-75
2023/10/09 08:38:14;;;;;;;30.48;19.27;;;18.70;99.90;;;;;;5044676;28;20029;-75
2023/10/09 08:40:46;;;;;;;24.98;17.42;;;18.60;99.90;;;;;;5039515;28;20032;-75
2023/10/09 08:43:19;;;;;;;33.08;18.88;;;18.60;99.90;;;;;;5041649;28;20551;-75
2023/10/09 08:45:48;;;;;;;26.35;15.73;;;18.70;99.90;;;;;;5044786;28;20047;-75
2023/10/09 08:48:15;;;;;;;33.28;17.90;;;18.70;99.90;;;;;;5042597;28;20106;-75
2023/10/09 08:50:45;;;;;;;33.65;19.25;;;18.80;99.90;;;;;;5039305;28;20050;-76
2023/10/09 08:53:15;;;;;;;30.77;18.50;;;18.80;99.90;;;;;;5042660;28;20037;-75
2023/10/09 08:55:42;;;;;;;30.88;19.58;;;18.90;99.90;;;;;;5043376;28;20037;-75
2023/10/09 08:58:32;;;;;;;31.60;18.23;;;18.90;99.90;;;;;;5043159;28;20161;-75
2023/10/09 09:01:00;;;;;;;29.75;19.50;;;19.00;99.90;;;;;;5040657;28;20108;-76
2023/10/09 09:03:26;;;;;;;26.30;18.50;;;19.00;99.90;;;;;;5046973;28;20025;-75
2023/10/09 09:06:03;;;;;;;30.10;20.40;;;19.10;99.90;;;;;;5044505;28;20025;-76
2023/10/09 09:08:31;;;;;;;31.55;19.17;;;19.20;99.90;;;;;;5042337;28;20036;-75
2023/10/09 09:10:58;;;;;;;29.25;19.80;;;19.30;99.90;;;;;;5047846;28;20025;-77
2023/10/09 09:13:24;;;;;;;28.92;17.33;;;19.30;99.90;;;;;;5045088;28;20025;-75
2023/10/09 09:15:53;;;;;;;28.27;18.67;;;19.30;99.90;;;;;;5042711;28;20505;-76
2023/10/09 09:18:19;;;;;;;31.27;19.02;;;19.40;99.90;;;;;;5040709;28;20079;-75
2023/10/09 09:20:51;;;;;;;30.33;18.08;;;19.40;99.90;;;;;;5021789;28;20034;-76
2023/10/09 09:23:23;;;;;;;26.70;16.63;;;19.40;99.90;;;;;;5037683;28;20022;-75
2023/10/09 09:25:58;;;;;;;;;;;19.50;99.90;;;;;;5025385;28;20362;-76
2023/10/09 09:28:26;;;;;;;25.00;17.17;;;19.70;99.90;;;;;;5051123;28;19957;-80
2023/10/09 09:30:53;;;;;;;32.53;17.23;;;19.70;99.90;;;;;;5040760;28;20182;-75
2023/10/09 09:33:30;;;;;;;26.08;16.30;;;19.70;99.90;;;;;;5042762;28;20013;-75
2023/10/09 09:35:58;;;;;;;29.02;17.10;;;19.70;99.90;;;;;;5040225;28;20078;-75
2023/10/09 09:38:27;;;;;;;28.77;17.02;;;19.70;99.90;;;;;;5042192;28;20022;-76
2023/10/09 09:40:56;;;;;;;28.08;17.23;;;19.80;99.90;;;;;;5045290;28;20028;-76
2023/10/09 09:43:23;;;;;;;26.13;16.27;;;19.80;99.90;;;;;;5043121;28;20497;-75
2023/10/09 09:45:52;;;;;;;29.35;16.88;;;19.80;99.90;;;;;;5042744;28;20032;-79
2023/10/09 09:48:18;;;;;;;29.83;15.55;;;19.90;99.90;;;;;;5050676;28;20385;-76
2023/10/09 09:50:45;;;;;;;24.85;16.02;;;19.90;99.90;;;;;;5041053;28;20815;-76
2023/10/09 09:53:17;;;;;;;32.35;15.23;;;20.00;99.90;;;;;;5047563;28;20021;-76
2023/10/09 09:55:57;;;;;;;27.95;15.93;;;20.00;99.90;;;;;;5046336;28;20087;-76
2023/10/09 09:58:24;;;;;;;27.30;15.55;;;20.00;99.90;;;;;;5040548;28;20025;-76
2023/10/09 10:00:54;;;;;;;27.08;15.20;;;20.00;99.90;;;;;;5043677;28;20052;-76
2023/10/09 10:03:32;;;;;;;22.88;15.15;;;20.10;99.90;;;;;;5048363;28;20017;-77
2023/10/09 10:05:59;;;;;;;28.10;15.00;;;20.10;99.90;;;;;;5045179;28;20224;-76
2023/10/09 10:08:32;;;;;;;21.15;13.77;;;20.10;99.90;;;;;;5040520;28;20041;-76
2023/10/09 10:11:05;;;;;;;24.67;14.82;;;20.10;99.90;;;;;;5040671;28;20025;-77
2023/10/09 10:13:42;;;;;;;25.15;14.38;;;20.20;99.90;;;;;;5049290;28;20040;-76
2023/10/09 10:21:52;;;;;;;25.80;14.95;;;20.20;99.90;;;;;;5042810;28;20024;-76
2023/10/09 10:24:51;;;;;;;26.45;13.98;;;20.30;99.90;;;;;;5042214;28;20025;-75
2023/10/09 10:27:26;;;;;;;29.90;14.95;;;20.30;99.90;;;;;;5041965;28;20375;-76
2023/10/09 10:30:24;;;;;;;25.25;14.57;;;20.40;99.90;;;;;;5029949;28;20393;-77
2023/10/09 10:32:52;;;;;;;25.05;14.18;;;20.40;99.90;;;;;;5042257;28;20025;-77
2023/10/09 10:35:44;;;;;;;23.17;14.05;;;20.50;99.90;;;;;;5043975;28;20025;-75
2023/10/09 10:38:34;;;;;;;24.15;13.30;;;20.50;99.90;;;;;;5040563;28;20127;-77
2023/10/09 10:41:12;;;;;;;23.92;13.85;;;20.50;99.90;;;;;;5043879;28;20040;-75
2023/10/09 10:44:33;;;;;;;21.05;13.15;;;20.50;99.90;;;;;;5046844;28;20056;-74
2023/10/09 10:49:21;;;;;;;22.20;13.65;;;20.60;99.90;;;;;;5040486;28;20060;-75
2023/10/09 10:51:48;;;;;;;19.85;12.90;;;20.60;99.90;;;;;;5047015;28;20053;-75
2023/10/09 10:57:19;;;;;;;27.48;14.57;;;20.80;99.90;;;;;;5044655;28;20087;-74
2023/10/09 10:59:45;;;;;;;23.60;14.27;;;20.80;99.90;;;;;;5052115;28;20024;-75
2023/10/09 11:04:39;;;;;;;22.70;13.27;;;20.80;99.90;;;;;;5045742;28;20075;-76
2023/10/09 11:12:38;;;;;;;21.60;14.15;;;20.90;99.90;;;;;;5042697;28;20033;-75
2023/10/09 11:15:08;;;;;;;23.25;14.25;;;21.00;99.90;;;;;;5045665;28;20377;-75
2023/10/09 11:17:38;;;;;;;23.20;13.35;;;21.00;99.90;;;;;;5040122;28;20025;-77
2023/10/09 11:20:24;;;;;;;25.48;15.25;;;21.00;99.90;;;;;;5045044;28;20029;-77
2023/10/09 11:25:38;;;;;;;22.70;14.23;;;21.10;99.90;;;;;;5047968;28;20048;-77
2023/10/09 11:28:29;;;;;;;25.33;15.02;;;21.20;99.90;;;;;;5040594;28;20045;-76
2023/10/09 11:31:15;;;;;;;29.00;14.73;;;21.20;99.90;;;;;;5043401;28;20597;-77
2023/10/09 11:33:51;;;;;;;21.42;14.35;;;21.10;99.90;;;;;;5048588;28;20036;-78
2023/10/09 11:36:17;;;;;;;21.80;12.88;;;21.20;99.90;;;;;;5050394;28;20036;-77
2023/10/09 11:38:49;;;;;;;20.42;13.77;;;21.20;99.90;;;;;;5044609;28;20017;-76
2023/10/09 11:41:22;;;;;;;23.33;14.27;;;21.30;99.90;;;;;;5046578;28;20363;-77
2023/10/09 11:43:52;;;;;;;29.73;14.75;;;21.30;99.90;;;;;;5039403;28;20092;-77
2023/10/09 11:54:50;;;;;;;28.52;14.93;;;21.50;99.90;;;;;;4984172;28;20039;-77
2023/10/09 11:57:17;;;;;;;27.65;15.18;;;21.50;99.90;;;;;;4953752;28;20031;-78
2023/10/09 11:59:43;;;;;;;19.30;12.65;;;21.60;99.90;;;;;;5001237;28;20041;-76
2023/10/09 12:02:13;;;;;;;31.45;15.63;;;21.70;99.90;;;;;;5020947;28;20021;-76
2023/10/09 12:04:42;;;;;;;24.60;15.30;;;21.70;99.90;;;;;;5038806;28;20029;-77
2023/10/09 12:07:11;;;;;;;22.83;15.50;;;21.70;99.90;;;;;;5035966;28;20028;-77
2023/10/09 12:09:37;;;;;;;26.38;15.32;;;21.80;99.90;;;;;;5017580;28;20068;-77
2023/10/09 12:12:10;;;;;;;24.48;15.02;;;21.80;99.90;;;;;;5038048;28;20024;-77
2023/10/09 12:14:37;;;;;;;26.08;15.45;;;21.80;99.90;;;;;;5037582;28;20455;-77
2023/10/09 12:17:07;;;;;;;23.40;15.38;;;21.80;99.90;;;;;;5037552;28;20021;-77
2023/10/09 12:19:34;;;;;;;21.58;14.60;;;21.90;99.90;;;;;;5036770;28;20082;-78
2023/10/09 12:22:05;;;;;;;22.92;14.07;;;21.90;99.90;;;;;;5038650;28;20025;-77
2023/10/09 12:24:33;;;;;;;19.17;13.48;;;21.90;99.90;;;;;;5040526;28;20025;-77
2023/10/09 12:26:59;;;;;;;23.42;12.93;;;21.90;99.90;;;;;;5039940;28;20021;-78
2023/10/09 12:29:29;;;;;;;24.80;15.65;;;21.90;99.90;;;;;;5019365;28;20511;-77
2023/10/09 12:31:59;;;;;;;21.60;15.35;;;21.90;99.90;;;;;;5034536;28;20029;-77
2023/10/09 12:34:29;;;;;;;22.02;15.15;;;21.90;99.90;;;;;;5036819;28;20029;-76
2023/10/09 12:37:00;;;;;;;26.58;14.98;;;21.90;99.90;;;;;;5031292;28;20034;-79
2023/10/09 12:39:33;;;;;;;26.33;15.75;;;21.90;99.90;;;;;;5036014;28;20029;-76
2023/10/09 12:42:06;;;;;;;25.00;16.08;;;21.80;99.90;;;;;;5039528;28;20032;-78
2023/10/09 12:44:34;;;;;;;27.42;16.35;;;21.80;99.90;;;;;;5034733;28;20021;-77
2023/10/09 12:47:04;;;;;;;24.63;15.77;;;21.80;99.90;;;;;;5039362;28;20394;-76
2023/10/09 12:49:30;;;;;;;24.55;14.35;;;21.80;99.90;;;;;;5035701;28;20037;-76
2023/10/09 12:51:57;;;;;;;25.00;15.48;;;21.80;99.90;;;;;;5036029;28;20043;-76
2023/10/09 12:54:26;;;;;;;25.27;16.48;;;21.80;99.90;;;;;;5037257;28;20018;-77
2023/10/09 12:56:53;;;;;;;27.10;17.33;;;21.80;99.90;;;;;;5033166;28;20032;-76
2023/10/09 12:59:20;;;;;;;23.00;16.25;;;21.80;99.90;;;;;;5035059;28;21457;-77
2023/10/09 13:01:51;;;;;;;26.48;16.70;;;21.80;99.90;;;;;;5044416;28;20092;-77
2023/10/09 13:04:21;;;;;;;24.15;17.13;;;21.90;99.90;;;;;;5041416;28;20037;-77
2023/10/09 13:06:51;;;;;;;25.77;17.50;;;21.80;99.90;;;;;;5040777;28;20013;-77
2023/10/09 13:09:36;;;;;;;27.80;18.90;;;21.90;99.90;;;;;;5037180;28;20041;-77
2023/10/09 13:12:02;;;;;;;28.35;18.35;;;21.90;99.90;;;;;;5040796;28;20078;-77
2023/10/09 13:14:28;;;;;;;31.60;17.60;;;21.90;99.90;;;;;;5039774;28;20029;-76
2023/10/09 13:16:54;;;;;;;28.60;19.83;;;22.00;99.90;;;;;;5039177;28;20017;-77
2023/10/09 13:19:24;;;;;;;29.05;18.15;;;22.00;99.90;;;;;;5020429;28;20039;-77
2023/10/09 13:21:50;;;;;;;30.98;18.77;;;22.00;99.90;;;;;;5043458;28;20021;-77
2023/10/09 13:24:15;;;;;;;24.48;17.55;;;22.10;99.90;;;;;;5040844;28;20033;-77
2023/10/09 13:26:45;;;;;;;27.65;17.77;;;22.20;99.90;;;;;;5039908;28;20083;-77
2023/10/09 13:29:11;;;;;;;29.27;18.13;;;22.30;99.90;;;;;;5036926;28;20044;-77
2023/10/09 13:31:39;;;;;;;29.77;18.08;;;22.20;99.90;;;;;;5036490;28;20021;-76
2023/10/09 13:34:06;;;;;;;29.77;19.58;;;22.30;99.90;;;;;;5041743;28;20017;-77
2023/10/09 13:36:33;;;;;;;29.63;19.60;;;22.30;99.90;;;;;;5040288;28;20021;-77
2023/10/09 13:41:43;;;;;;;29.25;18.13;;;22.30;99.90;;;;;;5040733;28;20074;-77
2023/10/09 13:44:09;;;;;;;34.00;19.50;;;22.30;99.90;;;;;;5041262;28;20033;-77
2023/10/09 13:46:41;;;;;;;29.30;18.27;;;22.30;99.90;;;;;;5041160;28;20021;-77
2023/10/09 13:49:13;;;;;;;25.07;17.17;;;22.20;99.90;;;;;;5041290;28;20041;-78
2023/10/09 13:51:45;;;;;;;26.98;16.77;;;22.20;99.90;;;;;;5020421;28;20116;-78
2023/10/09 13:54:28;;;;;;;30.33;17.95;;;22.30;99.90;;;;;;5038884;28;20033;-77
2023/10/09 13:56:57;;;;;;;25.25;16.48;;;22.30;99.90;;;;;;5039967;28;20029;-78
2023/10/09 13:59:25;;;;;;;28.15;17.15;;;22.30;99.90;;;;;;5038629;28;20025;-78
2023/10/09 14:01:54;;;;;;;26.40;15.70;;;22.30;99.90;;;;;;5040399;28;20470;-78
2023/10/09 14:04:23;;;;;;;25.83;16.55;;;22.30;99.90;;;;;;5037341;28;20488;-78
2023/10/09 14:06:59;;;;;;;24.20;15.52;;;22.30;99.90;;;;;;5022641;28;20385;-78
2023/10/09 14:09:31;;;;;;;26.23;17.55;;;22.30;99.90;;;;;;5021801;28;20037;-78
2023/10/09 14:12:06;;;;;;;31.05;18.05;;;22.30;99.90;;;;;;5037464;28;20025;-78
2023/10/09 14:14:46;;;;;;;30.88;17.38;;;22.30;99.90;;;;;;5038541;28;20321;-78
2023/10/09 14:17:13;;;;;;;27.55;15.73;;;22.40;99.90;;;;;;5038126;28;20113;-77
2023/10/09 14:19:49;;;;;;;26.77;15.30;;;22.30;99.90;;;;;;5038346;28;20374;-78
2023/10/09 14:22:25;;;;;;;23.02;15.80;;;22.30;99.90;;;;;;5036133;28;20025;-78
2023/10/09 14:24:57;;;;;;;19.85;14.35;;;22.30;99.90;;;;;;5041858;28;20029;-79
2023/10/09 14:27:29;;;;;;;28.10;15.02;;;22.30;99.90;;;;;;5041275;28;20087;-78
2023/10/09 14:29:57;;;;;;;29.23;15.63;;;22.30;99.90;;;;;;5041587;28;20037;-78
2023/10/09 14:32:33;;;;;;;26.73;15.57;;;22.30;99.90;;;;;;5042389;28;20482;-77
2023/10/09 14:35:02;;;;;;;23.83;15.25;;;22.20;99.90;;;;;;5042785;28;20021;-78
2023/10/09 14:37:28;;;;;;;23.85;14.43;;;22.30;99.90;;;;;;5040034;28;20933;-77
2023/10/09 14:39:55;;;;;;;23.70;14.60;;;22.30;99.90;;;;;;5042813;28;20028;-77
2023/10/09 14:42:24;;;;;;;29.58;15.48;;;22.30;99.90;;;;;;5041261;28;20033;-74
2023/10/09 14:44:50;;;;;;;21.85;14.80;;;22.30;99.90;;;;;;5041074;28;20029;-76
2023/10/09 14:47:15;;;;;;;22.77;14.32;;;22.30;99.90;;;;;;5039129;28;20025;-76
2023/10/09 14:49:46;;;;;;;20.02;14.20;;;22.30;99.90;;;;;;5022838;28;20047;-77
2023/10/09 14:52:16;;;;;;;22.70;13.85;;;22.30;99.90;;;;;;5041029;28;20104;-76
2023/10/09 14:54:44;;;;;;;23.27;14.40;;;22.20;99.90;;;;;;5042528;28;20087;-75
2023/10/09 14:57:11;;;;;;;24.70;12.95;;;22.20;99.90;;;;;;5041284;28;20477;-76
2023/10/09 14:59:37;;;;;;;22.92;12.15;;;22.20;99.90;;;;;;5042416;28;20029;-76
2023/10/09 15:02:05;;;;;;;18.48;12.20;;;22.20;99.90;;;;;;5022588;28;20026;-76
2023/10/09 15:04:31;;;;;;;22.45;12.98;;;22.20;99.90;;;;;;5041168;28;20020;-75
2023/10/09 15:06:57;;;;;;;19.17;12.18;;;22.10;99.90;;;;;;5039891;28;20033;-76
2023/10/09 15:09:28;;;;;;;24.27;13.00;;;22.10;99.90;;;;;;5023817;28;20036;-76
2023/10/09 15:11:54;;;;;;;20.13;12.18;;;22.00;99.90;;;;;;5040403;28;20473;-76
2023/10/09 15:14:20;;;;;;;24.15;11.52;;;22.00;99.90;;;;;;5040193;28;20051;-76
2023/10/09 15:16:47;;;;;;;22.08;11.73;;;22.00;99.90;;;;;;5024270;28;20021;-75
2023/10/09 15:19:14;;;;;;;18.60;11.40;;;22.00;99.90;;;;;;5040574;28;20079;-75
2023/10/09 15:21:46;;;;;;;24.00;12.02;;;21.90;99.90;;;;;;5041559;28;20028;-76
2023/10/09 15:24:19;;;;;;;20.70;12.10;;;21.90;99.90;;;;;;5039494;28;20031;-76
2023/10/09 15:26:52;;;;;;;;;;;21.90;99.90;;;;;;5041526;28;20032;-75
2023/10/09 15:29:23;;;;;;;18.30;10.18;;;22.00;99.90;;;;;;5038504;28;20027;-75
2023/10/09 15:31:52;;;;;;;19.00;11.20;;;22.00;99.90;;;;;;5040377;28;20021;-74
2023/10/09 15:34:20;;;;;;;18.92;11.82;;;22.00;99.90;;;;;;5022123;28;22801;-74
2023/10/09 15:36:49;;;;;;;20.30;12.38;;;22.00;99.90;;;;;;5037803;28;20017;-75
2023/10/09 15:39:19;;;;;;;23.70;13.23;;;22.00;99.90;;;;;;5020990;28;20021;-75
2023/10/09 15:41:48;;;;;;;17.67;10.43;;;22.00;99.90;;;;;;5042041;28;20040;-75
2023/10/09 15:44:14;;;;;;;15.48;10.50;;;22.00;99.90;;;;;;5039577;28;20028;-75
2023/10/09 15:46:40;;;;;;;17.40;10.27;;;22.00;99.90;;;;;;5040806;28;20029;-75
2023/10/09 15:49:11;;;;;;;16.63;9.30;;;21.90;99.90;;;;;;5039463;28;20075;-75
2023/10/09 15:51:37;;;;;;;15.05;9.38;;;21.90;99.90;;;;;;5040725;28;20167;-75
2023/10/09 15:54:03;;;;;;;20.13;9.63;;;21.90;99.90;;;;;;5039421;28;20096;-75
2023/10/09 15:56:29;;;;;;;23.75;10.80;;;21.90;99.90;;;;;;5039471;28;20159;-74